sensor_id;sensor_type;location;lat;lon;timestamp;P1;durP1;ratioP1;P2;durP2;ratioP2
49450;SDS011;35336;48.400;10.886;2022-11-27T00:00:05;41.07;;;22.33;;
49450;SDS011;35336;48.400;10.886;2022-11-27T00:00:20;43.53;;;22.10;;
49450;SDS011;35336;48.400;10.886;2022-11-27T00:00:36;39.88;;;22.00;;
49450;SDS011;35336;48.400;10.886;2022-11-27T00:00:51;42.80;;;21.63;;
49450;SDS011;35336;48.400;10.886;2022-11-27T00:01:26;44.70;;;21.20;;
49450;SDS011;35336;48.400;10.886;2022-11-27T00:01:43;56.53;;;22.05;;
49450;SDS011;35336;48.400;10.886;2022-11-27T00:01:58;51.30;;;21.25;;
49450;SDS011;35336;48.400;10.886;2022-11-27T00:02:14;41.10;;;21.08;;
49450;SDS011;35336;48.400;10.886;2022-11-27T00:02:29;36.00;;;21.17;;
49450;SDS011;35336;48.400;10.886;2022-11-27T00:02:44;35.03;;;20.70;;
49450;SDS011;35336;48.400;10.886;2022-11-27T00:02:59;35.13;;;20.17;;
49450;SDS011;35336;48.400;10.886;2022-11-27T00:03:15;35.75;;;20.63;;
49450;SDS011;35336;48.400;10.886;2022-11-27T00:03:30;36.20;;;21.27;;
49450;SDS011;35336;48.400;10.886;2022-11-27T00:03:45;40.97;;;21.43;;
49450;SDS011;35336;48.400;10.886;2022-11-27T00:04:01;42.85;;;21.70;;
49450;SDS011;35336;48.400;10.886;2022-11-27T00:04:17;38.10;;;20.88;;
49450;SDS011;35336;48.400;10.886;2022-11-27T00:04:32;45.30;;;20.77;;
49450;SDS011;35336;48.400;10.886;2022-11-27T00:04:47;49.47;;;20.02;;
49450;SDS011;35336;48.400;10.886;2022-11-27T00:05:03;35.77;;;18.77;;
49450;SDS011;35336;48.400;10.886;2022-11-27T00:05:18;30.20;;;19.17;;
49450;SDS011;35336;48.400;10.886;2022-11-27T00:05:34;45.80;;;20.50;;
49450;SDS011;35336;48.400;10.886;2022-11-27T00:05:53;52.03;;;21.37;;
49450;SDS011;35336;48.400;10.886;2022-11-27T00:06:17;41.75;;;19.98;;
49450;SDS011;35336;48.400;10.886;2022-11-27T00:06:35;32.05;;;18.83;;
49450;SDS011;35336;48.400;10.886;2022-11-27T00:06:51;41.90;;;19.35;;
49450;SDS011;35336;48.400;10.886;2022-11-27T00:07:07;53.03;;;19.53;;
49450;SDS011;35336;48.400;10.886;2022-11-27T00:07:22;44.80;;;19.57;;
49450;SDS011;35336;48.400;10.886;2022-11-27T00:07:37;33.88;;;19.70;;
49450;SDS011;35336;48.400;10.886;2022-11-27T00:07:53;28.17;;;19.20;;
49450;SDS011;35336;48.400;10.886;2022-11-27T00:08:08;33.97;;;18.93;;
49450;SDS011;35336;48.400;10.886;2022-11-27T00:08:23;54.67;;;20.30;;
49450;SDS011;35336;48.400;10.886;2022-11-27T00:08:39;67.97;;;21.27;;
49450;SDS011;35336;48.400;10.886;2022-11-27T00:08:55;49.95;;;20.33;;
49450;SDS011;35336;48.400;10.886;2022-11-27T00:09:13;45.95;;;19.75;;
49450;SDS011;35336;48.400;10.886;2022-11-27T00:09:29;52.47;;;19.15;;
49450;SDS011;35336;48.400;10.886;2022-11-27T00:09:44;53.17;;;19.73;;
49450;SDS011;35336;48.400;10.886;2022-11-27T00:10:00;59.00;;;20.40;;
49450;SDS011;35336;48.400;10.886;2022-11-27T00:10:15;47.07;;;19.97;;
49450;SDS011;35336;48.400;10.886;2022-11-27T00:10:30;30.88;;;18.83;;
49450;SDS011;35336;48.400;10.886;2022-11-27T00:10:46;38.80;;;19.03;;
49450;SDS011;35336;48.400;10.886;2022-11-27T00:11:34;45.03;;;19.70;;
49450;SDS011;35336;48.400;10.886;2022-11-27T00:11:43;44.55;;;18.70;;
49450;SDS011;35336;48.400;10.886;2022-11-27T00:11:59;39.57;;;18.77;;
49450;SDS011;35336;48.400;10.886;2022-11-27T00:12:14;36.60;;;19.27;;
49450;SDS011;35336;48.400;10.886;2022-11-27T00:12:29;37.57;;;19.50;;
49450;SDS011;35336;48.400;10.886;2022-11-27T00:12:45;48.22;;;19.88;;
49450;SDS011;35336;48.400;10.886;2022-11-27T00:13:00;43.87;;;19.37;;
49450;SDS011;35336;48.400;10.886;2022-11-27T00:13:16;31.40;;;18.23;;
49450;SDS011;35336;48.400;10.886;2022-11-27T00:13:31;32.77;;;18.90;;
49450;SDS011;35336;48.400;10.886;2022-11-27T00:13:47;40.37;;;19.67;;
49450;SDS011;35336;48.400;10.886;2022-11-27T00:14:03;40.13;;;19.00;;
49450;SDS011;35336;48.400;10.886;2022-11-27T00:14:18;37.28;;;18.92;;
49450;SDS011;35336;48.400;10.886;2022-11-27T00:14:33;48.00;;;19.20;;
49450;SDS011;35336;48.400;10.886;2022-11-27T00:14:49;55.60;;;19.43;;
49450;SDS011;35336;48.400;10.886;2022-11-27T00:15:04;52.92;;;19.20;;
49450;SDS011;35336;48.400;10.886;2022-11-27T00:15:19;52.93;;;19.70;;
49450;SDS011;35336;48.400;10.886;2022-11-27T00:15:35;44.53;;;19.23;;
49450;SDS011;35336;48.400;10.886;2022-11-27T00:15:50;42.05;;;19.38;;
49450;SDS011;35336;48.400;10.886;2022-11-27T00:16:05;42.60;;;19.70;;
49450;SDS011;35336;48.400;10.886;2022-11-27T00:16:21;43.35;;;19.30;;
49450;SDS011;35336;48.400;10.886;2022-11-27T00:16:38;50.83;;;19.98;;
49450;SDS011;35336;48.400;10.886;2022-11-27T00:16:53;55.27;;;20.23;;
49450;SDS011;35336;48.400;10.886;2022-11-27T00:17:09;50.57;;;20.60;;
49450;SDS011;35336;48.400;10.886;2022-11-27T00:17:24;33.88;;;19.98;;
49450;SDS011;35336;48.400;10.886;2022-11-27T00:17:39;25.00;;;17.77;;
49450;SDS011;35336;48.400;10.886;2022-11-27T00:17:55;30.65;;;17.80;;
49450;SDS011;35336;48.400;10.886;2022-11-27T00:18:10;39.77;;;19.13;;
49450;SDS011;35336;48.400;10.886;2022-11-27T00:18:26;43.38;;;19.05;;
49450;SDS011;35336;48.400;10.886;2022-11-27T00:18:41;43.60;;;18.80;;
49450;SDS011;35336;48.400;10.886;2022-11-27T00:18:57;41.75;;;19.05;;
49450;SDS011;35336;48.400;10.886;2022-11-27T00:19:13;38.70;;;19.13;;
49450;SDS011;35336;48.400;10.886;2022-11-27T00:19:29;35.88;;;18.42;;
49450;SDS011;35336;48.400;10.886;2022-11-27T00:19:44;41.20;;;17.43;;
49450;SDS011;35336;48.400;10.886;2022-11-27T00:19:59;41.58;;;17.45;;
49450;SDS011;35336;48.400;10.886;2022-11-27T00:20:15;34.70;;;18.17;;
49450;SDS011;35336;48.400;10.886;2022-11-27T00:20:30;50.93;;;18.67;;
49450;SDS011;35336;48.400;10.886;2022-11-27T00:20:46;63.20;;;18.90;;
49450;SDS011;35336;48.400;10.886;2022-11-27T00:21:02;48.53;;;19.07;;
49450;SDS011;35336;48.400;10.886;2022-11-27T00:21:20;40.33;;;18.73;;
49450;SDS011;35336;48.400;10.886;2022-11-27T00:21:42;31.63;;;17.65;;
49450;SDS011;35336;48.400;10.886;2022-11-27T00:21:57;39.43;;;17.37;;
49450;SDS011;35336;48.400;10.886;2022-11-27T00:22:12;41.58;;;17.55;;
49450;SDS011;35336;48.400;10.886;2022-11-27T00:22:28;31.33;;;17.60;;
49450;SDS011;35336;48.400;10.886;2022-11-27T00:22:43;28.73;;;17.23;;
49450;SDS011;35336;48.400;10.886;2022-11-27T00:22:58;32.67;;;17.40;;
49450;SDS011;35336;48.400;10.886;2022-11-27T00:23:13;29.40;;;17.40;;
49450;SDS011;35336;48.400;10.886;2022-11-27T00:23:29;26.87;;;16.80;;
49450;SDS011;35336;48.400;10.886;2022-11-27T00:23:44;44.87;;;18.07;;
49450;SDS011;35336;48.400;10.886;2022-11-27T00:24:00;47.45;;;17.58;;
49450;SDS011;35336;48.400;10.886;2022-11-27T00:24:17;35.13;;;16.65;;
49450;SDS011;35336;48.400;10.886;2022-11-27T00:24:33;39.00;;;16.67;;
49450;SDS011;35336;48.400;10.886;2022-11-27T00:24:48;38.80;;;16.43;;
49450;SDS011;35336;48.400;10.886;2022-11-27T00:25:04;30.48;;;16.25;;
49450;SDS011;35336;48.400;10.886;2022-11-27T00:25:19;31.52;;;16.67;;
49450;SDS011;35336;48.400;10.886;2022-11-27T00:25:35;34.50;;;16.83;;
49450;SDS011;35336;48.400;10.886;2022-11-27T00:25:52;42.50;;;17.33;;
49450;SDS011;35336;48.400;10.886;2022-11-27T00:26:08;53.13;;;17.55;;
49450;SDS011;35336;48.400;10.886;2022-11-27T00:26:24;42.58;;;16.92;;
49450;SDS011;35336;48.400;10.886;2022-11-27T00:26:40;27.50;;;16.85;;
49450;SDS011;35336;48.400;10.886;2022-11-27T00:26:55;26.50;;;16.77;;
49450;SDS011;35336;48.400;10.886;2022-11-27T00:27:11;28.43;;;16.43;;
49450;SDS011;35336;48.400;10.886;2022-11-27T00:27:26;30.20;;;16.73;;
49450;SDS011;35336;48.400;10.886;2022-11-27T00:27:41;26.95;;;16.17;;
49450;SDS011;35336;48.400;10.886;2022-11-27T00:27:56;23.30;;;15.93;;
49450;SDS011;35336;48.400;10.886;2022-11-27T00:28:12;31.47;;;16.97;;
49450;SDS011;35336;48.400;10.886;2022-11-27T00:28:27;31.90;;;16.60;;
49450;SDS011;35336;48.400;10.886;2022-11-27T00:28:43;38.00;;;16.87;;
49450;SDS011;35336;48.400;10.886;2022-11-27T00:28:59;61.78;;;18.02;;
49450;SDS011;35336;48.400;10.886;2022-11-27T00:29:15;55.05;;;17.40;;
49450;SDS011;35336;48.400;10.886;2022-11-27T00:29:30;37.70;;;16.60;;
49450;SDS011;35336;48.400;10.886;2022-11-27T00:29:45;45.83;;;16.70;;
49450;SDS011;35336;48.400;10.886;2022-11-27T00:30:01;44.17;;;16.93;;
49450;SDS011;35336;48.400;10.886;2022-11-27T00:30:16;45.20;;;17.17;;
49450;SDS011;35336;48.400;10.886;2022-11-27T00:30:32;51.28;;;16.98;;
49450;SDS011;35336;48.400;10.886;2022-11-27T00:30:47;46.33;;;16.67;;
49450;SDS011;35336;48.400;10.886;2022-11-27T00:31:04;42.70;;;16.37;;
49450;SDS011;35336;48.400;10.886;2022-11-27T00:31:29;33.83;;;16.85;;
49450;SDS011;35336;48.400;10.886;2022-11-27T00:31:46;33.47;;;16.88;;
49450;SDS011;35336;48.400;10.886;2022-11-27T00:32:01;29.10;;;16.47;;
49450;SDS011;35336;48.400;10.886;2022-11-27T00:32:17;32.30;;;16.53;;
49450;SDS011;35336;48.400;10.886;2022-11-27T00:32:32;34.17;;;16.88;;
49450;SDS011;35336;48.400;10.886;2022-11-27T00:32:47;38.47;;;17.07;;
49450;SDS011;35336;48.400;10.886;2022-11-27T00:33:03;40.77;;;17.13;;
49450;SDS011;35336;48.400;10.886;2022-11-27T00:33:18;39.05;;;17.30;;
49450;SDS011;35336;48.400;10.886;2022-11-27T00:33:33;34.30;;;17.03;;
49450;SDS011;35336;48.400;10.886;2022-11-27T00:33:49;34.00;;;16.10;;
49450;SDS011;35336;48.400;10.886;2022-11-27T00:34:05;37.80;;;16.00;;
49450;SDS011;35336;48.400;10.886;2022-11-27T00:34:22;29.77;;;16.02;;
49450;SDS011;35336;48.400;10.886;2022-11-27T00:34:37;24.95;;;15.77;;
49450;SDS011;35336;48.400;10.886;2022-11-27T00:34:52;28.97;;;16.27;;
49450;SDS011;35336;48.400;10.886;2022-11-27T00:35:08;28.53;;;16.07;;
49450;SDS011;35336;48.400;10.886;2022-11-27T00:35:23;27.03;;;16.10;;
49450;SDS011;35336;48.400;10.886;2022-11-27T00:35:39;29.50;;;16.23;;
49450;SDS011;35336;48.400;10.886;2022-11-27T00:35:54;27.20;;;15.45;;
49450;SDS011;35336;48.400;10.886;2022-11-27T00:36:10;26.00;;;15.47;;
49450;SDS011;35336;48.400;10.886;2022-11-27T00:36:27;32.60;;;16.25;;
49450;SDS011;35336;48.400;10.886;2022-11-27T00:36:44;25.75;;;15.95;;
49450;SDS011;35336;48.400;10.886;2022-11-27T00:36:59;23.27;;;15.87;;
49450;SDS011;35336;48.400;10.886;2022-11-27T00:37:15;29.90;;;16.33;;
49450;SDS011;35336;48.400;10.886;2022-11-27T00:37:30;26.77;;;15.90;;
49450;SDS011;35336;48.400;10.886;2022-11-27T00:37:45;21.47;;;14.97;;
49450;SDS011;35336;48.400;10.886;2022-11-27T00:38:00;27.98;;;15.40;;
49450;SDS011;35336;48.400;10.886;2022-11-27T00:38:16;32.70;;;16.17;;
49450;SDS011;35336;48.400;10.886;2022-11-27T00:38:31;28.97;;;16.50;;
49450;SDS011;35336;48.400;10.886;2022-11-27T00:38:47;24.08;;;15.80;;
49450;SDS011;35336;48.400;10.886;2022-11-27T00:39:02;24.33;;;15.67;;
49450;SDS011;35336;48.400;10.886;2022-11-27T00:39:18;27.92;;;15.70;;
49450;SDS011;35336;48.400;10.886;2022-11-27T00:39:33;30.77;;;15.67;;
49450;SDS011;35336;48.400;10.886;2022-11-27T00:39:48;33.00;;;16.17;;
49450;SDS011;35336;48.400;10.886;2022-11-27T00:40:04;32.30;;;16.83;;
49450;SDS011;35336;48.400;10.886;2022-11-27T00:40:20;24.25;;;16.20;;
49450;SDS011;35336;48.400;10.886;2022-11-27T00:40:35;21.17;;;15.57;;
49450;SDS011;35336;48.400;10.886;2022-11-27T00:40:50;26.37;;;16.27;;
49450;SDS011;35336;48.400;10.886;2022-11-27T00:41:24;44.65;;;17.25;;
49450;SDS011;35336;48.400;10.886;2022-11-27T00:41:41;35.78;;;16.42;;
49450;SDS011;35336;48.400;10.886;2022-11-27T00:41:56;39.53;;;16.88;;
49450;SDS011;35336;48.400;10.886;2022-11-27T00:42:12;41.20;;;16.70;;
49450;SDS011;35336;48.400;10.886;2022-11-27T00:42:27;34.20;;;16.37;;
49450;SDS011;35336;48.400;10.886;2022-11-27T00:42:42;26.08;;;16.15;;
49450;SDS011;35336;48.400;10.886;2022-11-27T00:42:58;22.07;;;15.87;;
49450;SDS011;35336;48.400;10.886;2022-11-27T00:43:13;20.70;;;15.27;;
49450;SDS011;35336;48.400;10.886;2022-11-27T00:43:28;23.77;;;15.35;;
49450;SDS011;35336;48.400;10.886;2022-11-27T00:43:44;27.23;;;16.90;;
49450;SDS011;35336;48.400;10.886;2022-11-27T00:43:59;41.20;;;17.38;;
49450;SDS011;35336;48.400;10.886;2022-11-27T00:44:15;47.53;;;16.77;;
49450;SDS011;35336;48.400;10.886;2022-11-27T00:44:30;30.98;;;16.02;;
49450;SDS011;35336;48.400;10.886;2022-11-27T00:44:46;23.90;;;15.90;;
49450;SDS011;35336;48.400;10.886;2022-11-27T00:45:01;24.33;;;16.03;;
49450;SDS011;35336;48.400;10.886;2022-11-27T00:45:16;29.13;;;16.30;;
49450;SDS011;35336;48.400;10.886;2022-11-27T00:45:31;34.07;;;16.63;;
49450;SDS011;35336;48.400;10.886;2022-11-27T00:45:47;34.60;;;16.70;;
49450;SDS011;35336;48.400;10.886;2022-11-27T00:46:03;37.00;;;17.05;;
49450;SDS011;35336;48.400;10.886;2022-11-27T00:46:20;38.70;;;17.30;;
49450;SDS011;35336;48.400;10.886;2022-11-27T00:46:37;49.75;;;17.50;;
49450;SDS011;35336;48.400;10.886;2022-11-27T00:46:53;53.77;;;17.73;;
49450;SDS011;35336;48.400;10.886;2022-11-27T00:47:08;55.47;;;18.00;;
49450;SDS011;35336;48.400;10.886;2022-11-27T00:47:23;51.55;;;18.10;;
49450;SDS011;35336;48.400;10.886;2022-11-27T00:47:38;53.93;;;18.43;;
49450;SDS011;35336;48.400;10.886;2022-11-27T00:47:54;52.57;;;18.47;;
49450;SDS011;35336;48.400;10.886;2022-11-27T00:48:11;39.00;;;17.33;;
49450;SDS011;35336;48.400;10.886;2022-11-27T00:48:26;51.90;;;17.20;;
49450;SDS011;35336;48.400;10.886;2022-11-27T00:48:42;69.67;;;19.37;;
49450;SDS011;35336;48.400;10.886;2022-11-27T00:48:58;76.43;;;20.35;;
49450;SDS011;35336;48.400;10.886;2022-11-27T00:49:15;64.15;;;18.83;;
49450;SDS011;35336;48.400;10.886;2022-11-27T00:49:31;43.10;;;17.17;;
49450;SDS011;35336;48.400;10.886;2022-11-27T00:49:46;48.20;;;17.95;;
49450;SDS011;35336;48.400;10.886;2022-11-27T00:50:01;56.07;;;18.67;;
49450;SDS011;35336;48.400;10.886;2022-11-27T00:50:17;54.37;;;19.00;;
49450;SDS011;35336;48.400;10.886;2022-11-27T00:50:32;44.67;;;18.77;;
49450;SDS011;35336;48.400;10.886;2022-11-27T00:50:47;40.67;;;18.00;;
49450;SDS011;35336;48.400;10.886;2022-11-27T00:51:04;44.87;;;18.27;;
49450;SDS011;35336;48.400;10.886;2022-11-27T00:51:22;56.88;;;18.25;;
49450;SDS011;35336;48.400;10.886;2022-11-27T00:51:39;59.70;;;18.88;;
49450;SDS011;35336;48.400;10.886;2022-11-27T00:51:54;44.65;;;18.85;;
49450;SDS011;35336;48.400;10.886;2022-11-27T00:52:10;34.28;;;17.58;;
49450;SDS011;35336;48.400;10.886;2022-11-27T00:52:25;37.40;;;16.83;;
49450;SDS011;35336;48.400;10.886;2022-11-27T00:52:40;32.50;;;16.43;;
49450;SDS011;35336;48.400;10.886;2022-11-27T00:52:56;30.27;;;16.63;;
49450;SDS011;35336;48.400;10.886;2022-11-27T00:53:13;34.28;;;17.65;;
49450;SDS011;35336;48.400;10.886;2022-11-27T00:53:28;41.47;;;18.53;;
49450;SDS011;35336;48.400;10.886;2022-11-27T00:53:44;46.97;;;18.17;;
49450;SDS011;35336;48.400;10.886;2022-11-27T00:54:00;48.00;;;17.65;;
49450;SDS011;35336;48.400;10.886;2022-11-27T00:54:16;50.22;;;18.20;;
49450;SDS011;35336;48.400;10.886;2022-11-27T00:54:31;58.77;;;18.53;;
49450;SDS011;35336;48.400;10.886;2022-11-27T00:54:47;68.50;;;18.75;;
49450;SDS011;35336;48.400;10.886;2022-11-27T00:55:02;67.30;;;18.67;;
49450;SDS011;35336;48.400;10.886;2022-11-27T00:55:18;41.35;;;17.60;;
49450;SDS011;35336;48.400;10.886;2022-11-27T00:55:34;35.85;;;17.48;;
49450;SDS011;35336;48.400;10.886;2022-11-27T00:55:49;47.47;;;17.83;;
49450;SDS011;35336;48.400;10.886;2022-11-27T00:56:04;54.47;;;17.63;;
49450;SDS011;35336;48.400;10.886;2022-11-27T00:56:21;57.83;;;17.58;;
49450;SDS011;35336;48.400;10.886;2022-11-27T00:56:38;38.33;;;17.23;;
49450;SDS011;35336;48.400;10.886;2022-11-27T00:56:54;28.27;;;16.38;;
49450;SDS011;35336;48.400;10.886;2022-11-27T00:57:09;26.83;;;15.93;;
49450;SDS011;35336;48.400;10.886;2022-11-27T00:57:24;26.10;;;15.87;;
49450;SDS011;35336;48.400;10.886;2022-11-27T00:57:40;37.30;;;17.00;;
49450;SDS011;35336;48.400;10.886;2022-11-27T00:57:55;48.67;;;17.70;;
49450;SDS011;35336;48.400;10.886;2022-11-27T00:58:10;36.73;;;16.47;;
49450;SDS011;35336;48.400;10.886;2022-11-27T00:58:25;39.97;;;17.08;;
49450;SDS011;35336;48.400;10.886;2022-11-27T00:58:41;56.90;;;18.37;;
49450;SDS011;35336;48.400;10.886;2022-11-27T00:58:56;48.70;;;18.27;;
49450;SDS011;35336;48.400;10.886;2022-11-27T00:59:12;57.40;;;18.73;;
49450;SDS011;35336;48.400;10.886;2022-11-27T00:59:28;59.70;;;19.20;;
49450;SDS011;35336;48.400;10.886;2022-11-27T00:59:43;34.17;;;17.63;;
49450;SDS011;35336;48.400;10.886;2022-11-27T00:59:58;26.63;;;16.77;;
49450;SDS011;35336;48.400;10.886;2022-11-27T01:00:14;36.97;;;17.67;;
49450;SDS011;35336;48.400;10.886;2022-11-27T01:00:30;47.42;;;18.63;;
49450;SDS011;35336;48.400;10.886;2022-11-27T01:00:45;56.23;;;18.87;;
49450;SDS011;35336;48.400;10.886;2022-11-27T01:01:03;55.60;;;18.50;;
49450;SDS011;35336;48.400;10.886;2022-11-27T01:01:30;52.03;;;17.42;;
49450;SDS011;35336;48.400;10.886;2022-11-27T01:01:48;30.70;;;16.55;;
49450;SDS011;35336;48.400;10.886;2022-11-27T01:02:03;35.33;;;16.77;;
49450;SDS011;35336;48.400;10.886;2022-11-27T01:02:18;40.97;;;17.00;;
49450;SDS011;35336;48.400;10.886;2022-11-27T01:02:34;40.10;;;17.73;;
49450;SDS011;35336;48.400;10.886;2022-11-27T01:02:49;43.33;;;18.17;;
49450;SDS011;35336;48.400;10.886;2022-11-27T01:03:04;44.30;;;18.35;;
49450;SDS011;35336;48.400;10.886;2022-11-27T01:03:19;45.97;;;18.00;;
49450;SDS011;35336;48.400;10.886;2022-11-27T01:03:35;55.33;;;17.67;;
49450;SDS011;35336;48.400;10.886;2022-11-27T01:03:50;55.63;;;18.03;;
49450;SDS011;35336;48.400;10.886;2022-11-27T01:04:07;43.08;;;17.63;;
49450;SDS011;35336;48.400;10.886;2022-11-27T01:04:24;33.33;;;16.85;;
49450;SDS011;35336;48.400;10.886;2022-11-27T01:04:40;39.87;;;17.90;;
49450;SDS011;35336;48.400;10.886;2022-11-27T01:04:55;38.30;;;18.52;;
49450;SDS011;35336;48.400;10.886;2022-11-27T01:05:10;44.93;;;18.17;;
49450;SDS011;35336;48.400;10.886;2022-11-27T01:05:26;66.03;;;19.63;;
49450;SDS011;35336;48.400;10.886;2022-11-27T01:05:41;71.60;;;20.50;;
49450;SDS011;35336;48.400;10.886;2022-11-27T01:06:00;54.33;;;18.43;;
49450;SDS011;35336;48.400;10.886;2022-11-27T01:06:20;47.10;;;18.15;;
49450;SDS011;35336;48.400;10.886;2022-11-27T01:06:36;61.47;;;18.67;;
49450;SDS011;35336;48.400;10.886;2022-11-27T01:06:51;61.67;;;18.40;;
49450;SDS011;35336;48.400;10.886;2022-11-27T01:07:07;58.70;;;18.07;;
49450;SDS011;35336;48.400;10.886;2022-11-27T01:07:22;62.72;;;18.75;;
49450;SDS011;35336;48.400;10.886;2022-11-27T01:07:37;54.33;;;19.37;;
49450;SDS011;35336;48.400;10.886;2022-11-27T01:07:53;47.83;;;19.23;;
49450;SDS011;35336;48.400;10.886;2022-11-27T01:08:08;35.63;;;18.42;;
49450;SDS011;35336;48.400;10.886;2022-11-27T01:08:23;28.57;;;17.27;;
49450;SDS011;35336;48.400;10.886;2022-11-27T01:08:39;31.00;;;17.80;;
49450;SDS011;35336;48.400;10.886;2022-11-27T01:08:55;31.70;;;18.20;;
49450;SDS011;35336;48.400;10.886;2022-11-27T01:09:12;27.23;;;16.80;;
49450;SDS011;35336;48.400;10.886;2022-11-27T01:09:28;35.45;;;17.35;;
49450;SDS011;35336;48.400;10.886;2022-11-27T01:09:44;44.47;;;18.43;;
49450;SDS011;35336;48.400;10.886;2022-11-27T01:09:59;47.63;;;19.10;;
49450;SDS011;35336;48.400;10.886;2022-11-27T01:10:14;56.43;;;19.67;;
49450;SDS011;35336;48.400;10.886;2022-11-27T01:10:29;62.17;;;19.27;;
49450;SDS011;35336;48.400;10.886;2022-11-27T01:10:52;50.00;;;18.17;;
49450;SDS011;35336;48.400;10.886;2022-11-27T01:11:17;39.10;;;18.80;;
49450;SDS011;35336;48.400;10.886;2022-11-27T01:11:36;38.78;;;18.95;;
49450;SDS011;35336;48.400;10.886;2022-11-27T01:11:52;43.92;;;19.42;;
49450;SDS011;35336;48.400;10.886;2022-11-27T01:12:07;52.33;;;20.00;;
49450;SDS011;35336;48.400;10.886;2022-11-27T01:12:23;53.08;;;19.48;;
49450;SDS011;35336;48.400;10.886;2022-11-27T01:12:38;38.33;;;18.63;;
49450;SDS011;35336;48.400;10.886;2022-11-27T01:12:53;26.13;;;17.70;;
49450;SDS011;35336;48.400;10.886;2022-11-27T01:13:09;35.70;;;18.02;;
49450;SDS011;35336;48.400;10.886;2022-11-27T01:13:25;47.97;;;18.80;;
49450;SDS011;35336;48.400;10.886;2022-11-27T01:13:42;46.15;;;19.20;;
49450;SDS011;35336;48.400;10.886;2022-11-27T01:13:59;34.03;;;19.33;;
49450;SDS011;35336;48.400;10.886;2022-11-27T01:14:16;50.55;;;20.45;;
49450;SDS011;35336;48.400;10.886;2022-11-27T01:14:32;61.53;;;20.48;;
49450;SDS011;35336;48.400;10.886;2022-11-27T01:14:48;56.03;;;19.88;;
49450;SDS011;35336;48.400;10.886;2022-11-27T01:15:03;47.17;;;19.27;;
49450;SDS011;35336;48.400;10.886;2022-11-27T01:15:18;37.58;;;18.75;;
49450;SDS011;35336;48.400;10.886;2022-11-27T01:15:34;32.33;;;19.30;;
49450;SDS011;35336;48.400;10.886;2022-11-27T01:15:59;40.93;;;19.97;;
49450;SDS011;35336;48.400;10.886;2022-11-27T01:16:16;32.72;;;18.50;;
49450;SDS011;35336;48.400;10.886;2022-11-27T01:16:33;34.38;;;18.98;;
49450;SDS011;35336;48.400;10.886;2022-11-27T01:16:48;39.70;;;19.10;;
49450;SDS011;35336;48.400;10.886;2022-11-27T01:17:04;40.97;;;19.60;;
49450;SDS011;35336;48.400;10.886;2022-11-27T01:17:19;49.23;;;19.50;;
49450;SDS011;35336;48.400;10.886;2022-11-27T01:17:34;52.90;;;18.98;;
49450;SDS011;35336;48.400;10.886;2022-11-27T01:17:50;45.93;;;19.17;;
49450;SDS011;35336;48.400;10.886;2022-11-27T01:18:05;40.67;;;19.20;;
49450;SDS011;35336;48.400;10.886;2022-11-27T01:18:20;36.43;;;19.03;;
49450;SDS011;35336;48.400;10.886;2022-11-27T01:18:36;36.45;;;18.98;;
49450;SDS011;35336;48.400;10.886;2022-11-27T01:18:54;39.80;;;18.70;;
49450;SDS011;35336;48.400;10.886;2022-11-27T01:19:11;45.03;;;19.08;;
49450;SDS011;35336;48.400;10.886;2022-11-27T01:19:28;46.17;;;18.75;;
49450;SDS011;35336;48.400;10.886;2022-11-27T01:19:43;39.70;;;18.37;;
49450;SDS011;35336;48.400;10.886;2022-11-27T01:19:58;39.60;;;17.85;;
49450;SDS011;35336;48.400;10.886;2022-11-27T01:20:14;57.10;;;17.87;;
49450;SDS011;35336;48.400;10.886;2022-11-27T01:20:29;51.20;;;17.93;;
49450;SDS011;35336;48.400;10.886;2022-11-27T01:20:45;37.13;;;18.65;;
49450;SDS011;35336;48.400;10.886;2022-11-27T01:21:00;34.37;;;18.63;;
49450;SDS011;35336;48.400;10.886;2022-11-27T01:21:18;32.28;;;17.67;;
49450;SDS011;35336;48.400;10.886;2022-11-27T01:21:34;42.25;;;18.13;;
49450;SDS011;35336;48.400;10.886;2022-11-27T01:21:49;42.08;;;17.70;;
49450;SDS011;35336;48.400;10.886;2022-11-27T01:22:05;53.23;;;16.97;;
49450;SDS011;35336;48.400;10.886;2022-11-27T01:22:20;62.00;;;17.15;;
49450;SDS011;35336;48.400;10.886;2022-11-27T01:22:35;55.43;;;16.70;;
49450;SDS011;35336;48.400;10.886;2022-11-27T01:22:51;58.57;;;16.07;;
49450;SDS011;35336;48.400;10.886;2022-11-27T01:23:06;62.35;;;16.73;;
49450;SDS011;35336;48.400;10.886;2022-11-27T01:23:22;48.13;;;16.80;;
49450;SDS011;35336;48.400;10.886;2022-11-27T01:23:37;61.50;;;16.60;;
49450;SDS011;35336;48.400;10.886;2022-11-27T01:23:53;71.33;;;16.67;;
49450;SDS011;35336;48.400;10.886;2022-11-27T01:24:09;52.05;;;16.23;;
49450;SDS011;35336;48.400;10.886;2022-11-27T01:24:27;47.38;;;14.93;;
49450;SDS011;35336;48.400;10.886;2022-11-27T01:24:42;39.43;;;14.97;;
49450;SDS011;35336;48.400;10.886;2022-11-27T01:24:58;41.90;;;15.43;;
49450;SDS011;35336;48.400;10.886;2022-11-27T01:25:13;50.50;;;15.95;;
49450;SDS011;35336;48.400;10.886;2022-11-27T01:25:28;47.50;;;16.17;;
49450;SDS011;35336;48.400;10.886;2022-11-27T01:25:44;37.97;;;15.93;;
49450;SDS011;35336;48.400;10.886;2022-11-27T01:26:00;26.30;;;14.82;;
49450;SDS011;35336;48.400;10.886;2022-11-27T01:26:17;34.63;;;14.15;;
49450;SDS011;35336;48.400;10.886;2022-11-27T01:26:32;53.53;;;14.77;;
49450;SDS011;35336;48.400;10.886;2022-11-27T01:26:48;49.00;;;14.90;;
49450;SDS011;35336;48.400;10.886;2022-11-27T01:27:03;47.70;;;14.57;;
49450;SDS011;35336;48.400;10.886;2022-11-27T01:27:18;54.80;;;14.77;;
49450;SDS011;35336;48.400;10.886;2022-11-27T01:27:34;89.30;;;16.42;;
49450;SDS011;35336;48.400;10.886;2022-11-27T01:27:49;121.57;;;16.33;;
49450;SDS011;35336;48.400;10.886;2022-11-27T01:28:05;87.23;;;13.90;;
49450;SDS011;35336;48.400;10.886;2022-11-27T01:28:23;63.75;;;13.13;;
49450;SDS011;35336;48.400;10.886;2022-11-27T01:28:38;68.30;;;14.30;;
49450;SDS011;35336;48.400;10.886;2022-11-27T01:28:54;47.47;;;13.87;;
49450;SDS011;35336;48.400;10.886;2022-11-27T01:29:11;47.35;;;14.00;;
49450;SDS011;35336;48.400;10.886;2022-11-27T01:29:26;83.40;;;15.23;;
49450;SDS011;35336;48.400;10.886;2022-11-27T01:29:42;74.87;;;14.43;;
49450;SDS011;35336;48.400;10.886;2022-11-27T01:29:57;57.13;;;14.00;;
49450;SDS011;35336;48.400;10.886;2022-11-27T01:30:12;52.00;;;14.13;;
49450;SDS011;35336;48.400;10.886;2022-11-27T01:30:28;59.20;;;14.32;;
49450;SDS011;35336;48.400;10.886;2022-11-27T01:30:44;73.60;;;14.25;;
49450;SDS011;35336;48.400;10.886;2022-11-27T01:31:06;45.50;;;13.03;;
49450;SDS011;35336;48.400;10.886;2022-11-27T01:31:24;34.80;;;13.52;;
49450;SDS011;35336;48.400;10.886;2022-11-27T01:31:42;25.33;;;13.00;;
49450;SDS011;35336;48.400;10.886;2022-11-27T01:31:57;31.87;;;13.23;;
49450;SDS011;35336;48.400;10.886;2022-11-27T01:32:12;41.10;;;13.17;;
49450;SDS011;35336;48.400;10.886;2022-11-27T01:32:28;53.35;;;13.20;;
49450;SDS011;35336;48.400;10.886;2022-11-27T01:32:43;57.07;;;13.63;;